sensor_id;sensor_type;location;lat;lon;timestamp;P1;durP1;ratioP1;P2;durP2;ratioP2
34673;SDS011;20879;55.668;37.858;2022-08-21T00:00:35;44.10;;;26.42;;
34673;SDS011;20879;55.668;37.858;2022-08-21T00:03:10;39.80;;;25.85;;
34673;SDS011;20879;55.668;37.858;2022-08-21T00:05:43;42.47;;;27.30;;
34673;SDS011;20879;55.668;37.858;2022-08-21T00:08:16;41.95;;;26.60;;
34673;SDS011;20879;55.668;37.858;2022-08-21T00:10:46;40.97;;;26.55;;
34673;SDS011;20879;55.668;37.858;2022-08-21T00:13:17;46.33;;;26.73;;
34673;SDS011;20879;55.668;37.858;2022-08-21T00:18:17;44.60;;;27.13;;
34673;SDS011;20879;55.668;37.858;2022-08-21T00:20:49;41.60;;;26.10;;
34673;SDS011;20879;55.668;37.858;2022-08-21T00:25:48;37.63;;;26.67;;
34673;SDS011;20879;55.668;37.858;2022-08-21T00:28:17;37.15;;;25.77;;
34673;SDS011;20879;55.668;37.858;2022-08-21T00:30:47;39.03;;;25.58;;
34673;SDS011;20879;55.668;37.858;2022-08-21T00:33:16;38.42;;;25.38;;
34673;SDS011;20879;55.668;37.858;2022-08-21T00:35:45;41.67;;;25.70;;
34673;SDS011;20879;55.668;37.858;2022-08-21T00:38:17;43.22;;;27.25;;
34673;SDS011;20879;55.668;37.858;2022-08-21T00:40:47;43.90;;;26.02;;
34673;SDS011;20879;55.668;37.858;2022-08-21T00:43:20;40.03;;;25.83;;
34673;SDS011;20879;55.668;37.858;2022-08-21T00:45:52;41.53;;;24.70;;
34673;SDS011;20879;55.668;37.858;2022-08-21T00:48:23;36.70;;;23.45;;
34673;SDS011;20879;55.668;37.858;2022-08-21T00:50:56;41.25;;;25.15;;
34673;SDS011;20879;55.668;37.858;2022-08-21T00:53:30;38.08;;;24.95;;
34673;SDS011;20879;55.668;37.858;2022-08-21T00:56:01;36.55;;;25.42;;
34673;SDS011;20879;55.668;37.858;2022-08-21T00:58:32;38.42;;;24.25;;
34673;SDS011;20879;55.668;37.858;2022-08-21T01:01:04;38.93;;;24.63;;
34673;SDS011;20879;55.668;37.858;2022-08-21T01:03:35;37.53;;;25.85;;
34673;SDS011;20879;55.668;37.858;2022-08-21T01:06:11;38.67;;;24.75;;
34673;SDS011;20879;55.668;37.858;2022-08-21T01:08:43;39.40;;;25.75;;
34673;SDS011;20879;55.668;37.858;2022-08-21T01:11:14;37.10;;;24.95;;
34673;SDS011;20879;55.668;37.858;2022-08-21T01:13:43;39.95;;;23.95;;
34673;SDS011;20879;55.668;37.858;2022-08-21T01:16:15;39.60;;;24.30;;
34673;SDS011;20879;55.668;37.858;2022-08-21T01:18:49;36.40;;;24.70;;
34673;SDS011;20879;55.668;37.858;2022-08-21T01:21:22;41.83;;;23.85;;
34673;SDS011;20879;55.668;37.858;2022-08-21T01:23:54;44.38;;;25.73;;
34673;SDS011;20879;55.668;37.858;2022-08-21T01:26:25;37.38;;;24.23;;
34673;SDS011;20879;55.668;37.858;2022-08-21T01:29:01;39.30;;;23.58;;
34673;SDS011;20879;55.668;37.858;2022-08-21T01:31:33;35.47;;;24.10;;
34673;SDS011;20879;55.668;37.858;2022-08-21T01:34:03;37.40;;;24.85;;
34673;SDS011;20879;55.668;37.858;2022-08-21T01:36:35;38.50;;;23.40;;
34673;SDS011;20879;55.668;37.858;2022-08-21T01:41:35;36.75;;;22.75;;
34673;SDS011;20879;55.668;37.858;2022-08-21T01:44:04;36.28;;;25.33;;
34673;SDS011;20879;55.668;37.858;2022-08-21T01:46:34;38.92;;;24.98;;
34673;SDS011;20879;55.668;37.858;2022-08-21T01:49:03;37.22;;;25.30;;
34673;SDS011;20879;55.668;37.858;2022-08-21T01:51:35;38.55;;;24.15;;
34673;SDS011;20879;55.668;37.858;2022-08-21T01:54:04;34.15;;;24.92;;
34673;SDS011;20879;55.668;37.858;2022-08-21T01:56:35;39.03;;;23.58;;
34673;SDS011;20879;55.668;37.858;2022-08-21T01:59:06;35.90;;;21.85;;
34673;SDS011;20879;55.668;37.858;2022-08-21T02:01:36;39.83;;;23.63;;
34673;SDS011;20879;55.668;37.858;2022-08-21T02:04:06;43.28;;;25.30;;
34673;SDS011;20879;55.668;37.858;2022-08-21T02:06:38;39.22;;;24.52;;
34673;SDS011;20879;55.668;37.858;2022-08-21T02:09:08;38.42;;;25.27;;
34673;SDS011;20879;55.668;37.858;2022-08-21T02:11:40;39.28;;;24.52;;
34673;SDS011;20879;55.668;37.858;2022-08-21T02:14:11;36.20;;;22.98;;
34673;SDS011;20879;55.668;37.858;2022-08-21T02:16:58;39.60;;;24.45;;
34673;SDS011;20879;55.668;37.858;2022-08-21T02:19:36;40.47;;;25.05;;
34673;SDS011;20879;55.668;37.858;2022-08-21T02:22:09;37.60;;;22.20;;
34673;SDS011;20879;55.668;37.858;2022-08-21T02:24:39;36.83;;;24.98;;
34673;SDS011;20879;55.668;37.858;2022-08-21T02:27:21;40.60;;;24.13;;
34673;SDS011;20879;55.668;37.858;2022-08-21T02:32:22;42.33;;;24.75;;
34673;SDS011;20879;55.668;37.858;2022-08-21T02:34:52;39.40;;;25.48;;
34673;SDS011;20879;55.668;37.858;2022-08-21T02:37:23;41.80;;;26.08;;
34673;SDS011;20879;55.668;37.858;2022-08-21T02:39:55;38.72;;;26.05;;
34673;SDS011;20879;55.668;37.858;2022-08-21T02:42:24;43.28;;;27.60;;
34673;SDS011;20879;55.668;37.858;2022-08-21T02:44:54;41.13;;;27.90;;
34673;SDS011;20879;55.668;37.858;2022-08-21T02:47:23;37.95;;;26.70;;
34673;SDS011;20879;55.668;37.858;2022-08-21T02:49:52;42.10;;;26.15;;
34673;SDS011;20879;55.668;37.858;2022-08-21T02:52:24;44.42;;;27.27;;
34673;SDS011;20879;55.668;37.858;2022-08-21T02:54:53;39.42;;;27.73;;
34673;SDS011;20879;55.668;37.858;2022-08-21T02:57:22;42.78;;;29.02;;
34673;SDS011;20879;55.668;37.858;2022-08-21T02:59:52;40.90;;;26.95;;
34673;SDS011;20879;55.668;37.858;2022-08-21T03:02:21;45.55;;;28.67;;
34673;SDS011;20879;55.668;37.858;2022-08-21T03:04:52;40.47;;;26.65;;
34673;SDS011;20879;55.668;37.858;2022-08-21T03:07:24;44.78;;;30.23;;
34673;SDS011;20879;55.668;37.858;2022-08-21T03:09:53;46.05;;;29.80;;
34673;SDS011;20879;55.668;37.858;2022-08-21T03:12:22;43.38;;;29.98;;
34673;SDS011;20879;55.668;37.858;2022-08-21T03:14:55;48.53;;;30.95;;
34673;SDS011;20879;55.668;37.858;2022-08-21T03:17:25;46.47;;;31.67;;
34673;SDS011;20879;55.668;37.858;2022-08-21T03:19:56;49.13;;;31.83;;
34673;SDS011;20879;55.668;37.858;2022-08-21T03:22:29;46.80;;;29.33;;
34673;SDS011;20879;55.668;37.858;2022-08-21T03:24:58;46.58;;;29.30;;
34673;SDS011;20879;55.668;37.858;2022-08-21T03:27:32;37.63;;;25.88;;
34673;SDS011;20879;55.668;37.858;2022-08-21T03:30:05;47.70;;;30.75;;
34673;SDS011;20879;55.668;37.858;2022-08-21T03:32:36;45.58;;;32.85;;
34673;SDS011;20879;55.668;37.858;2022-08-21T03:35:08;53.83;;;33.42;;
34673;SDS011;20879;55.668;37.858;2022-08-21T03:37:40;49.85;;;31.85;;
34673;SDS011;20879;55.668;37.858;2022-08-21T03:40:10;48.38;;;33.90;;
34673;SDS011;20879;55.668;37.858;2022-08-21T03:42:41;47.40;;;35.00;;
34673;SDS011;20879;55.668;37.858;2022-08-21T03:45:11;53.25;;;35.47;;
34673;SDS011;20879;55.668;37.858;2022-08-21T03:47:49;52.80;;;34.78;;
34673;SDS011;20879;55.668;37.858;2022-08-21T03:50:19;54.33;;;34.13;;
34673;SDS011;20879;55.668;37.858;2022-08-21T03:52:51;50.53;;;35.35;;
34673;SDS011;20879;55.668;37.858;2022-08-21T03:55:20;51.47;;;36.80;;
34673;SDS011;20879;55.668;37.858;2022-08-21T03:57:49;54.03;;;37.38;;
34673;SDS011;20879;55.668;37.858;2022-08-21T04:00:19;59.35;;;38.70;;
34673;SDS011;20879;55.668;37.858;2022-08-21T04:02:49;52.63;;;37.53;;
34673;SDS011;20879;55.668;37.858;2022-08-21T04:05:19;57.78;;;38.00;;
34673;SDS011;20879;55.668;37.858;2022-08-21T04:08:00;58.33;;;37.33;;
34673;SDS011;20879;55.668;37.858;2022-08-21T04:10:35;53.97;;;37.78;;
34673;SDS011;20879;55.668;37.858;2022-08-21T04:13:06;56.47;;;38.45;;
34673;SDS011;20879;55.668;37.858;2022-08-21T04:15:36;52.67;;;37.55;;
34673;SDS011;20879;55.668;37.858;2022-08-21T04:18:05;57.05;;;38.88;;
34673;SDS011;20879;55.668;37.858;2022-08-21T04:20:34;53.85;;;38.25;;
34673;SDS011;20879;55.668;37.858;2022-08-21T04:23:06;59.90;;;38.75;;
34673;SDS011;20879;55.668;37.858;2022-08-21T04:25:35;54.20;;;38.75;;
34673;SDS011;20879;55.668;37.858;2022-08-21T04:28:04;57.30;;;41.03;;
34673;SDS011;20879;55.668;37.858;2022-08-21T04:30:34;58.83;;;39.50;;
34673;SDS011;20879;55.668;37.858;2022-08-21T04:33:03;55.22;;;40.90;;
34673;SDS011;20879;55.668;37.858;2022-08-21T04:35:33;50.88;;;37.95;;
34673;SDS011;20879;55.668;37.858;2022-08-21T04:38:02;60.20;;;40.42;;
34673;SDS011;20879;55.668;37.858;2022-08-21T04:40:33;53.08;;;39.65;;
34673;SDS011;20879;55.668;37.858;2022-08-21T04:43:05;59.63;;;40.40;;
34673;SDS011;20879;55.668;37.858;2022-08-21T04:45:37;59.00;;;39.97;;
34673;SDS011;20879;55.668;37.858;2022-08-21T04:48:09;59.10;;;40.08;;
34673;SDS011;20879;55.668;37.858;2022-08-21T04:53:13;50.08;;;37.17;;
34673;SDS011;20879;55.668;37.858;2022-08-21T04:55:46;54.67;;;37.33;;
34673;SDS011;20879;55.668;37.858;2022-08-21T04:58:17;53.35;;;37.08;;
34673;SDS011;20879;55.668;37.858;2022-08-21T05:00:50;50.88;;;37.13;;
34673;SDS011;20879;55.668;37.858;2022-08-21T05:03:22;55.75;;;39.42;;
34673;SDS011;20879;55.668;37.858;2022-08-21T05:05:52;54.78;;;38.83;;
34673;SDS011;20879;55.668;37.858;2022-08-21T05:08:21;54.15;;;38.53;;
34673;SDS011;20879;55.668;37.858;2022-08-21T05:10:56;59.42;;;38.60;;
34673;SDS011;20879;55.668;37.858;2022-08-21T05:13:26;53.67;;;36.90;;
34673;SDS011;20879;55.668;37.858;2022-08-21T05:15:56;60.47;;;38.58;;
34673;SDS011;20879;55.668;37.858;2022-08-21T05:18:25;55.05;;;38.72;;
34673;SDS011;20879;55.668;37.858;2022-08-21T05:20:57;56.13;;;39.10;;
34673;SDS011;20879;55.668;37.858;2022-08-21T05:23:26;55.80;;;39.90;;
34673;SDS011;20879;55.668;37.858;2022-08-21T05:25:57;55.78;;;39.35;;
34673;SDS011;20879;55.668;37.858;2022-08-21T05:28:27;54.47;;;38.38;;
34673;SDS011;20879;55.668;37.858;2022-08-21T05:30:57;56.08;;;39.30;;
34673;SDS011;20879;55.668;37.858;2022-08-21T05:33:26;56.90;;;38.90;;
34673;SDS011;20879;55.668;37.858;2022-08-21T05:35:57;52.13;;;38.35;;
34673;SDS011;20879;55.668;37.858;2022-08-21T05:38:26;56.97;;;40.53;;
34673;SDS011;20879;55.668;37.858;2022-08-21T05:40:57;56.78;;;40.88;;
34673;SDS011;20879;55.668;37.858;2022-08-21T05:43:27;57.97;;;40.60;;
34673;SDS011;20879;55.668;37.858;2022-08-21T05:45:56;51.85;;;38.70;;
34673;SDS011;20879;55.668;37.858;2022-08-21T05:48:25;51.67;;;38.97;;
34673;SDS011;20879;55.668;37.858;2022-08-21T05:50:54;51.92;;;36.97;;
34673;SDS011;20879;55.668;37.858;2022-08-21T05:53:23;53.15;;;38.10;;
34673;SDS011;20879;55.668;37.858;2022-08-21T05:55:53;57.95;;;40.03;;
34673;SDS011;20879;55.668;37.858;2022-08-21T05:58:24;56.50;;;39.55;;
34673;SDS011;20879;55.668;37.858;2022-08-21T06:00:54;61.60;;;40.83;;
34673;SDS011;20879;55.668;37.858;2022-08-21T06:03:26;58.73;;;40.03;;
34673;SDS011;20879;55.668;37.858;2022-08-21T06:05:57;55.67;;;38.13;;
34673;SDS011;20879;55.668;37.858;2022-08-21T06:08:27;57.88;;;39.67;;
34673;SDS011;20879;55.668;37.858;2022-08-21T06:10:57;58.03;;;40.42;;
34673;SDS011;20879;55.668;37.858;2022-08-21T06:13:29;56.58;;;39.30;;
34673;SDS011;20879;55.668;37.858;2022-08-21T06:16:03;57.10;;;39.22;;
34673;SDS011;20879;55.668;37.858;2022-08-21T06:18:35;51.35;;;37.97;;
34673;SDS011;20879;55.668;37.858;2022-08-21T06:21:06;54.03;;;36.37;;
34673;SDS011;20879;55.668;37.858;2022-08-21T06:23:37;50.95;;;35.47;;
34673;SDS011;20879;55.668;37.858;2022-08-21T06:26:07;49.85;;;35.72;;
34673;SDS011;20879;55.668;37.858;2022-08-21T06:28:40;51.45;;;35.90;;
34673;SDS011;20879;55.668;37.858;2022-08-21T06:31:11;54.95;;;37.03;;
34673;SDS011;20879;55.668;37.858;2022-08-21T06:33:42;52.40;;;35.42;;
34673;SDS011;20879;55.668;37.858;2022-08-21T06:36:12;46.70;;;36.28;;
34673;SDS011;20879;55.668;37.858;2022-08-21T06:38:42;53.17;;;36.25;;
34673;SDS011;20879;55.668;37.858;2022-08-21T06:41:17;51.60;;;37.05;;
34673;SDS011;20879;55.668;37.858;2022-08-21T06:43:51;50.47;;;37.33;;
34673;SDS011;20879;55.668;37.858;2022-08-21T06:46:21;52.03;;;36.80;;
34673;SDS011;20879;55.668;37.858;2022-08-21T06:48:51;52.17;;;36.67;;
34673;SDS011;20879;55.668;37.858;2022-08-21T06:51:20;55.33;;;37.25;;
34673;SDS011;20879;55.668;37.858;2022-08-21T06:53:51;54.45;;;37.85;;
34673;SDS011;20879;55.668;37.858;2022-08-21T06:56:21;49.47;;;33.28;;
34673;SDS011;20879;55.668;37.858;2022-08-21T06:58:52;49.00;;;34.67;;
34673;SDS011;20879;55.668;37.858;2022-08-21T07:01:22;48.20;;;34.95;;
34673;SDS011;20879;55.668;37.858;2022-08-21T07:03:54;51.80;;;36.25;;
34673;SDS011;20879;55.668;37.858;2022-08-21T07:06:23;52.63;;;37.40;;
34673;SDS011;20879;55.668;37.858;2022-08-21T07:08:54;44.67;;;31.02;;
34673;SDS011;20879;55.668;37.858;2022-08-21T07:11:25;51.67;;;37.20;;
34673;SDS011;20879;55.668;37.858;2022-08-21T07:13:56;52.03;;;36.80;;
34673;SDS011;20879;55.668;37.858;2022-08-21T07:16:25;51.60;;;36.10;;
34673;SDS011;20879;55.668;37.858;2022-08-21T07:18:55;47.58;;;34.05;;
34673;SDS011;20879;55.668;37.858;2022-08-21T07:21:35;52.25;;;37.00;;
34673;SDS011;20879;55.668;37.858;2022-08-21T07:24:06;50.55;;;34.03;;
34673;SDS011;20879;55.668;37.858;2022-08-21T07:26:35;44.15;;;30.80;;
34673;SDS011;20879;55.668;37.858;2022-08-21T07:29:06;40.15;;;29.10;;
34673;SDS011;20879;55.668;37.858;2022-08-21T07:31:36;40.85;;;28.85;;
34673;SDS011;20879;55.668;37.858;2022-08-21T07:34:05;44.97;;;28.45;;
34673;SDS011;20879;55.668;37.858;2022-08-21T07:36:34;39.25;;;26.17;;
34673;SDS011;20879;55.668;37.858;2022-08-21T07:39:05;37.97;;;26.58;;
34673;SDS011;20879;55.668;37.858;2022-08-21T07:41:34;44.70;;;26.90;;
34673;SDS011;20879;55.668;37.858;2022-08-21T07:44:03;37.50;;;25.98;;
34673;SDS011;20879;55.668;37.858;2022-08-21T07:46:40;38.60;;;23.80;;
34673;SDS011;20879;55.668;37.858;2022-08-21T07:49:09;41.08;;;26.30;;
34673;SDS011;20879;55.668;37.858;2022-08-21T07:51:38;38.95;;;27.75;;
34673;SDS011;20879;55.668;37.858;2022-08-21T07:54:08;42.78;;;28.17;;
34673;SDS011;20879;55.668;37.858;2022-08-21T07:56:42;40.22;;;28.45;;
34673;SDS011;20879;55.668;37.858;2022-08-21T07:59:12;43.67;;;27.23;;
34673;SDS011;20879;55.668;37.858;2022-08-21T08:01:43;36.10;;;27.25;;
34673;SDS011;20879;55.668;37.858;2022-08-21T08:04:12;38.58;;;26.63;;
34673;SDS011;20879;55.668;37.858;2022-08-21T08:06:42;37.00;;;25.58;;
34673;SDS011;20879;55.668;37.858;2022-08-21T08:09:12;35.47;;;23.70;;
34673;SDS011;20879;55.668;37.858;2022-08-21T08:11:41;37.97;;;22.40;;
34673;SDS011;20879;55.668;37.858;2022-08-21T08:14:11;34.47;;;22.27;;
34673;SDS011;20879;55.668;37.858;2022-08-21T08:16:43;32.13;;;21.58;;
34673;SDS011;20879;55.668;37.858;2022-08-21T08:19:12;32.72;;;22.05;;
34673;SDS011;20879;55.668;37.858;2022-08-21T08:21:42;33.53;;;21.10;;
34673;SDS011;20879;55.668;37.858;2022-08-21T08:24:11;33.05;;;20.35;;
34673;SDS011;20879;55.668;37.858;2022-08-21T08:26:45;32.00;;;19.35;;
34673;SDS011;20879;55.668;37.858;2022-08-21T08:29:20;30.10;;;19.67;;
34673;SDS011;20879;55.668;37.858;2022-08-21T08:31:51;32.22;;;19.20;;
34673;SDS011;20879;55.668;37.858;2022-08-21T08:36:51;26.42;;;16.73;;
34673;SDS011;20879;55.668;37.858;2022-08-21T08:39:21;30.17;;;18.33;;
34673;SDS011;20879;55.668;37.858;2022-08-21T08:41:57;26.55;;;17.98;;
34673;SDS011;20879;55.668;37.858;2022-08-21T08:44:54;28.30;;;18.17;;
34673;SDS011;20879;55.668;37.858;2022-08-21T08:47:28;25.17;;;17.02;;
34673;SDS011;20879;55.668;37.858;2022-08-21T08:50:01;25.83;;;17.10;;
34673;SDS011;20879;55.668;37.858;2022-08-21T08:52:33;27.33;;;17.60;;
34673;SDS011;20879;55.668;37.858;2022-08-21T08:55:06;27.88;;;18.02;;
34673;SDS011;20879;55.668;37.858;2022-08-21T08:57:42;29.33;;;17.40;;
34673;SDS011;20879;55.668;37.858;2022-08-21T09:00:17;24.58;;;15.68;;
34673;SDS011;20879;55.668;37.858;2022-08-21T09:02:50;32.53;;;17.13;;
34673;SDS011;20879;55.668;37.858;2022-08-21T09:05:24;26.10;;;16.42;;
34673;SDS011;20879;55.668;37.858;2022-08-21T09:10:37;25.83;;;15.63;;
34673;SDS011;20879;55.668;37.858;2022-08-21T09:13:17;28.98;;;17.10;;
34673;SDS011;20879;55.668;37.858;2022-08-21T09:15:54;27.20;;;16.83;;
34673;SDS011;20879;55.668;37.858;2022-08-21T09:18:33;22.83;;;17.13;;
34673;SDS011;20879;55.668;37.858;2022-08-21T09:21:15;23.98;;;16.27;;
34673;SDS011;20879;55.668;37.858;2022-08-21T09:23:52;24.60;;;13.63;;
34673;SDS011;20879;55.668;37.858;2022-08-21T09:26:29;28.40;;;16.55;;
34673;SDS011;20879;55.668;37.858;2022-08-21T09:29:03;24.35;;;15.73;;
34673;SDS011;20879;55.668;37.858;2022-08-21T09:31:35;23.92;;;16.50;;
34673;SDS011;20879;55.668;37.858;2022-08-21T09:34:09;25.00;;;16.73;;
34673;SDS011;20879;55.668;37.858;2022-08-21T09:36:40;28.48;;;16.80;;
34673;SDS011;20879;55.668;37.858;2022-08-21T09:39:12;29.13;;;17.42;;
34673;SDS011;20879;55.668;37.858;2022-08-21T09:41:55;29.40;;;17.95;;
34673;SDS011;20879;55.668;37.858;2022-08-21T09:44:27;29.50;;;17.42;;
34673;SDS011;20879;55.668;37.858;2022-08-21T09:46:58;25.85;;;16.40;;
34673;SDS011;20879;55.668;37.858;2022-08-21T09:49:31;26.83;;;15.48;;
34673;SDS011;20879;55.668;37.858;2022-08-21T09:52:03;25.38;;;13.70;;
34673;SDS011;20879;55.668;37.858;2022-08-21T09:54:41;19.40;;;13.30;;
34673;SDS011;20879;55.668;37.858;2022-08-21T09:57:16;19.33;;;12.85;;
34673;SDS011;20879;55.668;37.858;2022-08-21T10:00:09;19.90;;;11.13;;
34673;SDS011;20879;55.668;37.858;2022-08-21T10:02:43;15.40;;;8.70;;
34673;SDS011;20879;55.668;37.858;2022-08-21T10:05:22;22.02;;;11.73;;
34673;SDS011;20879;55.668;37.858;2022-08-21T10:07:54;16.38;;;10.55;;
34673;SDS011;20879;55.668;37.858;2022-08-21T10:10:25;21.00;;;10.68;;
34673;SDS011;20879;55.668;37.858;2022-08-21T10:12:58;20.65;;;11.05;;
34673;SDS011;20879;55.668;37.858;2022-08-21T10:15:35;16.98;;;10.13;;
34673;SDS011;20879;55.668;37.858;2022-08-21T10:18:18;20.33;;;10.63;;
34673;SDS011;20879;55.668;37.858;2022-08-21T10:20:58;18.02;;;9.77;;
34673;SDS011;20879;55.668;37.858;2022-08-21T10:23:42;16.17;;;8.85;;
34673;SDS011;20879;55.668;37.858;2022-08-21T10:26:23;15.50;;;8.25;;
34673;SDS011;20879;55.668;37.858;2022-08-21T10:29:03;17.77;;;7.25;;
34673;SDS011;20879;55.668;37.858;2022-08-21T10:31:43;15.98;;;7.30;;
34673;SDS011;20879;55.668;37.858;2022-08-21T10:34:24;12.02;;;6.97;;
34673;SDS011;20879;55.668;37.858;2022-08-21T10:37:10;14.10;;;7.40;;
34673;SDS011;20879;55.668;37.858;2022-08-21T10:39:52;14.75;;;8.45;;
34673;SDS011;20879;55.668;37.858;2022-08-21T10:42:38;13.13;;;7.85;;
34673;SDS011;20879;55.668;37.858;2022-08-21T10:45:20;15.68;;;8.48;;
34673;SDS011;20879;55.668;37.858;2022-08-21T10:48:12;19.23;;;8.93;;
34673;SDS011;20879;55.668;37.858;2022-08-21T10:50:50;16.33;;;9.10;;
34673;SDS011;20879;55.668;37.858;2022-08-21T10:53:32;16.50;;;9.90;;
34673;SDS011;20879;55.668;37.858;2022-08-21T10:56:17;13.93;;;8.65;;
34673;SDS011;20879;55.668;37.858;2022-08-21T10:58:56;15.30;;;10.15;;
34673;SDS011;20879;55.668;37.858;2022-08-21T11:01:34;19.10;;;9.75;;
34673;SDS011;20879;55.668;37.858;2022-08-21T11:04:16;20.55;;;10.32;;
34673;SDS011;20879;55.668;37.858;2022-08-21T11:06:53;17.52;;;10.65;;
34673;SDS011;20879;55.668;37.858;2022-08-21T11:09:37;24.30;;;12.00;;
34673;SDS011;20879;55.668;37.858;2022-08-21T11:12:11;25.63;;;12.63;;
34673;SDS011;20879;55.668;37.858;2022-08-21T11:14:53;27.08;;;13.68;;
34673;SDS011;20879;55.668;37.858;2022-08-21T11:17:27;24.20;;;13.10;;
34673;SDS011;20879;55.668;37.858;2022-08-21T11:20:05;24.48;;;14.27;;
34673;SDS011;20879;55.668;37.858;2022-08-21T11:22:40;23.80;;;15.13;;
34673;SDS011;20879;55.668;37.858;2022-08-21T11:25:27;22.23;;;13.95;;
34673;SDS011;20879;55.668;37.858;2022-08-21T11:28:04;19.63;;;13.30;;
34673;SDS011;20879;55.668;37.858;2022-08-21T11:30:47;20.42;;;14.20;;
34673;SDS011;20879;55.668;37.858;2022-08-21T11:33:31;22.35;;;12.43;;
34673;SDS011;20879;55.668;37.858;2022-08-21T11:36:14;22.23;;;11.40;;
34673;SDS011;20879;55.668;37.858;2022-08-21T11:38:50;17.55;;;10.00;;
34673;SDS011;20879;55.668;37.858;2022-08-21T11:41:30;19.40;;;10.85;;
34673;SDS011;20879;55.668;37.858;2022-08-21T11:44:08;21.67;;;11.02;;
34673;SDS011;20879;55.668;37.858;2022-08-21T11:46:46;18.13;;;10.93;;
34673;SDS011;20879;55.668;37.858;2022-08-21T11:49:29;19.30;;;11.20;;
34673;SDS011;20879;55.668;37.858;2022-08-21T11:52:17;17.85;;;10.93;;
34673;SDS011;20879;55.668;37.858;2022-08-21T11:54:52;21.27;;;11.25;;
34673;SDS011;20879;55.668;37.858;2022-08-21T11:57:29;19.95;;;11.10;;
34673;SDS011;20879;55.668;37.858;2022-08-21T12:00:04;15.82;;;10.65;;
34673;SDS011;20879;55.668;37.858;2022-08-21T12:02:42;22.67;;;11.05;;
34673;SDS011;20879;55.668;37.858;2022-08-21T12:05:22;19.95;;;10.23;;
34673;SDS011;20879;55.668;37.858;2022-08-21T12:08:01;17.67;;;9.75;;
34673;SDS011;20879;55.668;37.858;2022-08-21T12:10:33;22.98;;;10.70;;
34673;SDS011;20879;55.668;37.858;2022-08-21T12:13:09;16.38;;;9.55;;
34673;SDS011;20879;55.668;37.858;2022-08-21T12:15:41;21.80;;;9.35;;
34673;SDS011;20879;55.668;37.858;2022-08-21T12:18:20;20.45;;;9.30;;
34673;SDS011;20879;55.668;37.858;2022-08-21T12:23:30;14.27;;;8.68;;
34673;SDS011;20879;55.668;37.858;2022-08-21T12:26:16;18.67;;;9.48;;
34673;SDS011;20879;55.668;37.858;2022-08-21T12:29:02;18.33;;;10.50;;
34673;SDS011;20879;55.668;37.858;2022-08-21T12:31:53;20.90;;;10.35;;
34673;SDS011;20879;55.668;37.858;2022-08-21T12:34:25;19.50;;;9.90;;
34673;SDS011;20879;55.668;37.858;2022-08-21T12:37:03;17.73;;;10.25;;
34673;SDS011;20879;55.668;37.858;2022-08-21T12:39:36;15.65;;;10.05;;
34673;SDS011;20879;55.668;37.858;2022-08-21T12:42:17;19.17;;;10.18;;
34673;SDS011;20879;55.668;37.858;2022-08-21T12:44:53;17.17;;;8.38;;
34673;SDS011;20879;55.668;37.858;2022-08-21T12:47:26;13.63;;;7.63;;
34673;SDS011;20879;55.668;37.858;2022-08-21T13:07:42;18.52;;;10.70;;
34673;SDS011;20879;55.668;37.858;2022-08-21T13:10:16;17.48;;;11.43;;
34673;SDS011;20879;55.668;37.858;2022-08-21T13:12:49;19.25;;;10.88;;
34673;SDS011;20879;55.668;37.858;2022-08-21T13:15:22;17.73;;;12.02;;
34673;SDS011;20879;55.668;37.858;2022-08-21T13:17:59;18.42;;;12.20;;
34673;SDS011;20879;55.668;37.858;2022-08-21T13:20:31;21.10;;;13.52;;
34673;SDS011;20879;55.668;37.858;2022-08-21T13:23:06;19.25;;;13.35;;
34673;SDS011;20879;55.668;37.858;2022-08-21T13:25:48;24.05;;;13.93;;
34673;SDS011;20879;55.668;37.858;2022-08-21T13:28:18;26.20;;;13.35;;
34673;SDS011;20879;55.668;37.858;2022-08-21T13:30:48;18.17;;;13.00;;
34673;SDS011;20879;55.668;37.858;2022-08-21T13:33:20;23.58;;;12.02;;
34673;SDS011;20879;55.668;37.858;2022-08-21T13:36:04;20.33;;;12.20;;
34673;SDS011;20879;55.668;37.858;2022-08-21T13:38:41;16.70;;;11.05;;
34673;SDS011;20879;55.668;37.858;2022-08-21T13:41:12;16.52;;;9.38;;
34673;SDS011;20879;55.668;37.858;2022-08-21T13:43:49;17.88;;;9.00;;
34673;SDS011;20879;55.668;37.858;2022-08-21T13:46:33;15.40;;;6.65;;
34673;SDS011;20879;55.668;37.858;2022-08-21T13:49:04;16.92;;;6.93;;
34673;SDS011;20879;55.668;37.858;2022-08-21T13:51:35;15.50;;;7.05;;
34673;SDS011;20879;55.668;37.858;2022-08-21T13:54:15;16.27;;;7.78;;
34673;SDS011;20879;55.668;37.858;2022-08-21T13:56:51;13.32;;;8.82;;
34673;SDS011;20879;55.668;37.858;2022-08-21T13:59:25;15.65;;;9.75;;
34673;SDS011;20879;55.668;37.858;2022-08-21T14:01:57;18.45;;;10.82;;
34673;SDS011;20879;55.668;37.858;2022-08-21T14:04:33;20.55;;;10.70;;
34673;SDS011;20879;55.668;37.858;2022-08-21T14:07:14;17.17;;;8.68;;
34673;SDS011;20879;55.668;37.858;2022-08-21T14:09:48;13.35;;;8.35;;
34673;SDS011;20879;55.668;37.858;2022-08-21T14:14:52;15.25;;;5.32;;
34673;SDS011;20879;55.668;37.858;2022-08-21T14:17:27;12.90;;;5.25;;
34673;SDS011;20879;55.668;37.858;2022-08-21T14:19:59;11.02;;;4.55;;
34673;SDS011;20879;55.668;37.858;2022-08-21T14:22:36;8.55;;;4.05;;
34673;SDS011;20879;55.668;37.858;2022-08-21T14:25:10;14.27;;;3.80;;
34673;SDS011;20879;55.668;37.858;2022-08-21T14:27:43;6.53;;;3.75;;
34673;SDS011;20879;55.668;37.858;2022-08-21T14:30:18;12.75;;;2.83;;
34673;SDS011;20879;55.668;37.858;2022-08-21T14:32:49;10.05;;;3.53;;
34673;SDS011;20879;55.668;37.858;2022-08-21T14:35:19;7.03;;;3.30;;
34673;SDS011;20879;55.668;37.858;2022-08-21T14:37:50;7.82;;;3.50;;
34673;SDS011;20879;55.668;37.858;2022-08-21T14:40:23;8.90;;;3.00;;
34673;SDS011;20879;55.668;37.858;2022-08-21T14:42:53;8.15;;;3.22;;
34673;SDS011;20879;55.668;37.858;2022-08-21T14:45:25;7.05;;;2.90;;
34673;SDS011;20879;55.668;37.858;2022-08-21T14:47:57;8.63;;;2.83;;
34673;SDS011;20879;55.668;37.858;2022-08-21T14:50:27;9.23;;;2.87;;
34673;SDS011;20879;55.668;37.858;2022-08-21T14:52:57;9.45;;;2.60;;
34673;SDS011;20879;55.668;37.858;2022-08-21T14:55:28;14.82;;;2.70;;
34673;SDS011;20879;55.668;37.858;2022-08-21T14:58:19;7.35;;;2.20;;
34673;SDS011;20879;55.668;37.858;2022-08-21T15:00:49;6.97;;;2.42;;
34673;SDS011;20879;55.668;37.858;2022-08-21T15:03:19;8.90;;;2.40;;
34673;SDS011;20879;55.668;37.858;2022-08-21T15:05:50;8.57;;;2.03;;
34673;SDS011;20879;55.668;37.858;2022-08-21T15:08:19;8.52;;;2.03;;
34673;SDS011;20879;55.668;37.858;2022-08-21T15:10:51;9.90;;;2.33;;
34673;SDS011;20879;55.668;37.858;2022-08-21T15:13:38;8.38;;;2.55;;
34673;SDS011;20879;55.668;37.858;2022-08-21T15:16:08;5.10;;;2.10;;
34673;SDS011;20879;55.668;37.858;2022-08-21T15:18:38;3.95;;;1.85;;
34673;SDS011;20879;55.668;37.858;2022-08-21T15:21:08;7.83;;;2.50;;
34673;SDS011;20879;55.668;37.858;2022-08-21T15:23:37;8.68;;;2.80;;
34673;SDS011;20879;55.668;37.858;2022-08-21T15:26:12;10.20;;;2.85;;